createdAt,value
2023-04-14T00:00:07.551Z,3.95
2023-04-14T00:01:07.568Z,3.96
2023-04-14T00:02:07.659Z,3.89
2023-04-14T00:03:07.996Z,3.89
2023-04-14T00:04:07.736Z,3.74
2023-04-14T00:05:07.628Z,3.80
2023-04-14T00:06:07.556Z,3.70
2023-04-14T00:07:07.533Z,3.59
2023-04-14T00:08:07.506Z,3.53
2023-04-14T00:09:07.576Z,3.60
2023-04-14T00:10:07.509Z,3.44
2023-04-14T00:11:07.511Z,3.46
2023-04-14T00:12:07.489Z,3.60
2023-04-14T00:13:07.492Z,3.59
2023-04-14T00:14:07.483Z,3.64
2023-04-14T00:15:07.517Z,3.60
2023-04-14T00:16:07.457Z,3.72
2023-04-14T00:17:07.448Z,3.63
2023-04-14T00:18:07.488Z,3.71
2023-04-14T00:19:07.433Z,3.72
2023-04-14T00:20:07.424Z,3.71
2023-04-14T00:21:07.453Z,3.81
2023-04-14T00:22:07.435Z,3.80
2023-04-14T00:23:07.442Z,3.78
2023-04-14T00:24:07.403Z,3.78
2023-04-14T00:25:07.442Z,3.71
2023-04-14T00:26:07.399Z,3.82
2023-04-14T00:27:07.412Z,3.64
2023-04-14T00:28:07.379Z,3.67
2023-04-14T00:29:07.384Z,3.71
2023-04-14T00:30:07.373Z,3.56
2023-04-14T00:31:07.405Z,3.54
2023-04-14T00:32:07.358Z,3.67
2023-04-14T00:33:07.394Z,3.46
2023-04-14T00:34:07.352Z,3.37
2023-04-14T00:35:07.346Z,3.42
2023-04-14T00:36:07.316Z,3.33
2023-04-14T00:37:07.361Z,3.20
2023-04-14T00:38:07.296Z,3.34
2023-04-14T00:39:07.338Z,3.26
2023-04-14T00:40:07.302Z,3.15
2023-04-14T00:41:07.305Z,3.23
2023-04-14T00:42:07.270Z,3.16
2023-04-14T00:43:07.279Z,3.34
2023-04-14T00:44:07.274Z,3.23
2023-04-14T00:45:07.323Z,3.20
2023-04-14T00:46:07.313Z,3.02
2023-04-14T00:47:07.262Z,3.02
2023-04-14T00:48:07.236Z,3.02
2023-04-14T00:49:07.245Z,3.04
2023-04-14T00:50:07.235Z,3.22
2023-04-14T00:51:07.325Z,3.19
2023-04-14T00:52:07.196Z,3.17
2023-04-14T00:53:07.201Z,3.26
2023-04-14T00:54:07.208Z,3.19
2023-04-14T00:55:07.190Z,3.25
2023-04-14T00:56:07.200Z,3.16
2023-04-14T00:57:07.249Z,3.16
2023-04-14T00:58:07.160Z,3.15
2023-04-14T00:59:07.171Z,3.08
2023-04-14T01:00:07.170Z,3.08
2023-04-14T01:01:07.157Z,3.10
2023-04-14T01:02:07.165Z,3.04
2023-04-14T01:03:07.330Z,3.07
2023-04-14T01:04:07.197Z,3.15
2023-04-14T01:05:07.314Z,3.17
2023-04-14T01:06:07.113Z,3.04
2023-04-14T01:07:07.096Z,2.94
2023-04-14T01:08:07.123Z,2.95
2023-04-14T01:09:07.131Z,2.84
2023-04-14T01:10:07.065Z,2.83
2023-04-14T01:11:07.072Z,2.84
2023-04-14T01:12:07.074Z,2.83
2023-04-14T01:13:07.049Z,2.87
2023-04-14T01:14:07.075Z,2.80
2023-04-14T01:15:07.081Z,2.86
2023-04-14T01:16:07.110Z,2.71
2023-04-14T01:17:07.043Z,2.71
2023-04-14T01:18:07.057Z,2.73
2023-04-14T01:19:07.024Z,2.77
2023-04-14T01:20:07.106Z,2.81
2023-04-14T01:21:07.052Z,2.86
2023-04-14T01:22:26.382Z,2.94
2023-04-14T01:23:07.009Z,2.99
2023-04-14T01:24:06.989Z,2.98
2023-04-14T01:25:06.997Z,3.01
2023-04-14T01:26:07.001Z,3.08
2023-04-14T01:27:07.031Z,3.12
2023-04-14T01:28:06.930Z,3.08
2023-04-14T01:29:06.942Z,3.08
2023-04-14T01:30:06.930Z,3.04
2023-04-14T01:31:06.950Z,3.07
2023-04-14T01:32:06.925Z,3.15
2023-04-14T01:33:06.990Z,2.98
2023-04-14T01:34:06.896Z,3.13
2023-04-14T01:35:15.173Z,3.07
2023-04-14T01:36:06.897Z,2.92
2023-04-14T01:37:06.914Z,2.99
2023-04-14T01:38:06.908Z,3.02
2023-04-14T01:39:06.912Z,3.02
2023-04-14T01:40:06.875Z,2.99
2023-04-14T01:41:06.985Z,2.99
2023-04-14T01:42:06.857Z,3.01
2023-04-14T01:43:06.856Z,2.92
2023-04-14T01:44:06.837Z,2.90
2023-04-14T01:45:06.859Z,2.94
2023-04-14T01:46:06.854Z,2.86
2023-04-14T01:47:06.806Z,2.90
2023-04-14T01:48:06.832Z,2.76
2023-04-14T01:49:06.832Z,2.66
2023-04-14T01:50:06.797Z,2.74
2023-04-14T01:51:06.839Z,2.83
2023-04-14T01:52:06.776Z,2.80
2023-04-14T01:53:06.787Z,2.80
2023-04-14T01:54:11.507Z,2.95
2023-04-14T01:55:06.755Z,2.90
2023-04-14T01:56:06.742Z,2.87
2023-04-14T01:57:06.801Z,2.84
2023-04-14T01:58:06.736Z,2.83
2023-04-14T01:59:06.717Z,2.77
2023-04-14T02:00:06.714Z,2.84
2023-04-14T02:01:06.771Z,2.81
2023-04-14T02:02:06.752Z,2.83
2023-04-14T02:03:06.882Z,2.83
2023-04-14T02:04:06.793Z,2.80
2023-04-14T02:05:06.668Z,2.81
2023-04-14T02:06:06.668Z,2.79
2023-04-14T02:07:06.687Z,2.81
2023-04-14T02:08:06.671Z,2.77
2023-04-14T02:09:06.699Z,2.59
2023-04-14T02:10:06.650Z,2.59
2023-04-14T02:11:06.639Z,2.51
2023-04-14T02:12:06.649Z,2.45
2023-04-14T02:13:06.643Z,2.58
2023-04-14T02:14:06.646Z,2.44
2023-04-14T02:15:06.686Z,2.36
2023-04-14T02:16:06.653Z,2.27
2023-04-14T02:17:06.599Z,2.33
2023-04-14T02:18:06.619Z,2.25
2023-04-14T02:19:06.615Z,2.19
2023-04-14T02:20:06.589Z,2.29
2023-04-14T02:21:06.607Z,2.22
2023-04-14T02:22:06.602Z,2.23
2023-04-14T02:23:06.590Z,2.27
2023-04-14T02:24:06.578Z,2.23
2023-04-14T02:25:06.588Z,2.27
2023-04-14T02:26:06.578Z,2.23
2023-04-14T02:27:06.577Z,2.22
2023-04-14T02:28:06.536Z,2.20
2023-04-14T02:29:06.492Z,2.27
2023-04-14T02:30:06.502Z,2.30
2023-04-14T02:31:06.553Z,2.32
2023-04-14T02:32:06.488Z,2.19
2023-04-14T02:33:06.522Z,2.12
2023-04-14T02:34:06.479Z,2.15
2023-04-14T02:35:06.480Z,2.20
2023-04-14T02:36:06.497Z,2.12
2023-04-14T02:37:06.453Z,2.18
2023-04-14T02:38:06.508Z,2.20
2023-04-14T02:39:06.465Z,2.19
2023-04-14T02:40:31.754Z,2.18
2023-04-14T02:41:06.451Z,2.05
2023-04-14T02:42:06.412Z,2.08
2023-04-14T02:43:06.427Z,1.93
2023-04-14T02:44:06.417Z,2.05
2023-04-14T02:45:06.465Z,2.08
2023-04-14T02:46:06.452Z,1.92
2023-04-14T02:47:06.392Z,2.04
2023-04-14T02:48:06.385Z,1.90
2023-04-14T02:49:06.350Z,1.93
2023-04-14T02:50:06.372Z,2.07
2023-04-14T02:51:06.414Z,2.04
2023-04-14T02:52:06.357Z,2.01
2023-04-14T02:53:06.331Z,2.11
2023-04-14T02:54:06.343Z,2.04
2023-04-14T02:55:06.329Z,2.01
2023-04-14T02:56:06.342Z,2.02
2023-04-14T02:57:06.384Z,2.07
2023-04-14T02:58:06.300Z,2.00
2023-04-14T02:59:06.315Z,2.04
2023-04-14T03:00:06.283Z,1.98
2023-04-14T03:01:06.311Z,2.07
2023-04-14T03:02:06.436Z,2.00
2023-04-14T03:03:06.419Z,2.00
2023-04-14T03:04:06.333Z,2.01
2023-04-14T03:05:06.254Z,1.93
2023-04-14T03:06:06.243Z,1.81
2023-04-14T03:07:06.234Z,1.74
2023-04-14T03:08:06.232Z,1.85
2023-04-14T03:09:06.271Z,1.92
2023-04-14T03:10:06.233Z,1.86
2023-04-14T03:11:06.195Z,2.00
2023-04-14T03:12:06.218Z,1.92
2023-04-14T03:13:06.209Z,1.81
2023-04-14T03:14:06.180Z,1.74
2023-04-14T03:15:08.830Z,1.74
2023-04-14T03:16:06.216Z,1.83
2023-04-14T03:17:06.163Z,1.82
2023-04-14T03:18:06.245Z,1.82
2023-04-14T03:19:06.184Z,1.77
2023-04-14T03:20:06.162Z,1.88
2023-04-14T03:21:06.160Z,1.89
2023-04-14T03:22:06.136Z,1.93
2023-04-14T03:23:06.140Z,1.98
2023-04-14T03:24:06.138Z,2.02
2023-04-14T03:25:06.121Z,1.93
2023-04-14T03:26:06.099Z,2.02
2023-04-14T03:27:06.137Z,2.00
2023-04-14T03:28:06.080Z,1.98
2023-04-14T03:29:06.102Z,1.90
2023-04-14T03:30:06.066Z,1.90
2023-04-14T03:31:06.103Z,1.86
2023-04-14T03:32:06.055Z,1.86
2023-04-14T03:33:06.187Z,1.89
2023-04-14T03:34:06.046Z,1.83
2023-04-14T03:35:06.027Z,1.90
2023-04-14T03:36:06.056Z,2.00
2023-04-14T03:37:06.020Z,1.90
2023-04-14T03:38:06.017Z,1.86
2023-04-14T03:39:06.065Z,1.89
2023-04-14T03:40:06.047Z,1.89
2023-04-14T03:41:05.995Z,1.79
2023-04-14T03:42:05.999Z,1.85
2023-04-14T03:43:05.960Z,1.81
2023-04-14T03:44:05.985Z,1.82
2023-04-14T03:45:06.006Z,1.79
2023-04-14T03:46:06.529Z,1.72
2023-04-14T03:47:05.953Z,1.75
2023-04-14T03:48:05.964Z,1.86
2023-04-14T03:49:05.940Z,1.86
2023-04-14T03:50:05.939Z,1.89
2023-04-14T03:51:06.025Z,1.92
2023-04-14T03:52:05.926Z,1.93
2023-04-14T03:53:05.908Z,1.89
2023-04-14T03:54:05.888Z,1.86
2023-04-14T03:55:05.913Z,1.86
2023-04-14T03:56:05.898Z,2.02
2023-04-14T03:57:05.930Z,1.88
2023-04-14T03:58:05.904Z,1.89
2023-04-14T03:59:06.252Z,1.86
2023-04-14T04:00:05.872Z,1.88
2023-04-14T04:01:05.872Z,1.85
2023-04-14T04:02:05.881Z,1.93
2023-04-14T04:03:06.022Z,1.88
2023-04-14T04:04:05.907Z,1.82
2023-04-14T04:05:05.886Z,1.83
2023-04-14T04:06:05.823Z,1.81
2023-04-14T04:07:05.825Z,1.85
2023-04-14T04:08:05.797Z,1.83
2023-04-14T04:09:05.863Z,1.85
2023-04-14T04:10:05.805Z,1.86
2023-04-14T04:11:05.793Z,1.85
2023-04-14T04:12:05.772Z,1.83
2023-04-14T04:13:05.756Z,1.89
2023-04-14T04:14:05.765Z,1.92
2023-04-14T04:15:05.778Z,1.95
2023-04-14T04:16:05.798Z,2.00
2023-04-14T04:17:05.745Z,2.05
2023-04-14T04:18:05.894Z,2.00
2023-04-14T04:19:05.738Z,2.18
2023-04-14T04:20:07.269Z,2.18
2023-04-14T04:21:05.760Z,2.19
2023-04-14T04:22:05.745Z,2.19
2023-04-14T04:23:05.683Z,2.25
2023-04-14T04:24:05.687Z,2.19
2023-04-14T04:25:05.683Z,2.11
2023-04-14T04:26:05.666Z,2.12
2023-04-14T04:27:09.783Z,2.11
2023-04-14T04:28:06.654Z,2.08
2023-04-14T04:29:05.641Z,2.14
2023-04-14T04:30:05.652Z,2.07
2023-04-14T04:31:05.665Z,2.11
2023-04-14T04:32:05.761Z,2.18
2023-04-14T04:33:05.722Z,2.09
2023-04-14T04:34:05.632Z,2.14
2023-04-14T04:35:05.631Z,2.15
2023-04-14T04:36:05.649Z,2.12
2023-04-14T04:37:05.612Z,2.11
2023-04-14T04:38:05.605Z,2.04
2023-04-14T04:39:05.623Z,2.00
2023-04-14T04:40:05.599Z,2.07
2023-04-14T04:41:05.572Z,2.01
2023-04-14T04:42:05.603Z,1.93
2023-04-14T04:43:05.534Z,1.98
2023-04-14T04:44:05.556Z,1.98
2023-04-14T04:45:05.572Z,2.01
2023-04-14T04:46:05.591Z,1.93
2023-04-14T04:47:05.532Z,1.95
2023-04-14T04:48:05.572Z,2.00
2023-04-14T04:49:05.526Z,1.93
2023-04-14T04:50:05.501Z,1.85
2023-04-14T04:51:05.526Z,2.02
2023-04-14T04:52:05.495Z,1.95
2023-04-14T04:53:05.478Z,2.01
2023-04-14T04:54:05.453Z,1.95
2023-04-14T04:55:05.447Z,2.00
2023-04-14T04:56:05.452Z,2.00
2023-04-14T04:57:22.316Z,2.00
2023-04-14T04:58:05.452Z,1.92
2023-04-14T04:59:05.433Z,1.89
2023-04-14T05:00:05.462Z,1.88
2023-04-14T05:01:05.482Z,1.92
2023-04-14T05:02:05.487Z,2.05
2023-04-14T05:03:05.772Z,2.02
2023-04-14T05:04:05.478Z,2.14
2023-04-14T05:05:05.383Z,2.08
2023-04-14T05:06:05.380Z,2.07
2023-04-14T05:07:05.370Z,2.05
2023-04-14T05:08:05.359Z,2.07
2023-04-14T05:09:05.420Z,2.11
2023-04-14T05:10:05.403Z,2.15
2023-04-14T05:11:05.335Z,2.04
2023-04-14T05:12:05.329Z,2.08
2023-04-14T05:13:05.329Z,2.05
2023-04-14T05:14:05.311Z,2.09
2023-04-14T05:15:05.359Z,2.18
2023-04-14T05:16:05.411Z,2.14
2023-04-14T05:17:05.327Z,2.26
2023-04-14T05:18:05.342Z,2.36
2023-04-14T05:19:05.297Z,2.41
2023-04-14T05:20:05.291Z,2.40
2023-04-14T05:21:05.287Z,2.43
2023-04-14T05:22:05.269Z,2.40
2023-04-14T05:23:05.252Z,2.40
2023-04-14T05:24:05.246Z,2.30
2023-04-14T05:25:05.234Z,2.43
2023-04-14T05:26:27.044Z,2.33
2023-04-14T05:27:14.199Z,2.20
2023-04-14T05:28:06.233Z,2.20
2023-04-14T05:29:05.202Z,2.32
2023-04-14T05:30:05.240Z,2.38
2023-04-14T05:31:05.238Z,2.22
2023-04-14T05:32:05.177Z,2.26
2023-04-14T05:33:05.276Z,2.33
2023-04-14T05:34:05.196Z,2.37
2023-04-14T05:35:05.186Z,2.26
2023-04-14T05:36:05.169Z,2.20
2023-04-14T05:37:05.174Z,2.36
2023-04-14T05:38:05.154Z,2.38
2023-04-14T05:39:05.182Z,2.43
2023-04-14T05:40:05.143Z,2.38
2023-04-14T05:41:05.119Z,2.36
2023-04-14T05:42:05.114Z,2.43
2023-04-14T05:43:05.097Z,2.41
2023-04-14T05:44:05.134Z,2.26
2023-04-14T05:45:05.144Z,2.38
2023-04-14T05:46:05.091Z,2.36
2023-04-14T05:47:05.116Z,2.44
2023-04-14T05:48:05.101Z,2.40
2023-04-14T05:49:05.119Z,2.40
2023-04-14T05:50:05.075Z,2.41
2023-04-14T05:51:05.110Z,2.44
2023-04-14T05:52:05.062Z,2.45
2023-04-14T05:53:05.032Z,2.44
2023-04-14T05:54:05.022Z,2.44
2023-04-14T05:55:05.030Z,2.55
2023-04-14T05:56:05.010Z,2.50
2023-04-14T05:57:05.039Z,2.59
2023-04-14T05:58:05.048Z,2.51
2023-04-14T05:59:05.024Z,2.53
2023-04-14T06:00:04.998Z,2.61
2023-04-14T06:01:04.990Z,2.58
2023-04-14T06:02:05.073Z,2.50
2023-04-14T06:03:05.308Z,2.63
2023-04-14T06:04:05.224Z,2.80
2023-04-14T06:05:05.000Z,2.79
2023-04-14T06:06:04.954Z,2.86
2023-04-14T06:07:04.956Z,2.90
2023-04-14T06:08:04.936Z,2.94
2023-04-14T06:09:05.227Z,2.97
2023-04-14T06:10:04.916Z,2.98
2023-04-14T06:11:04.925Z,2.98
2023-04-14T06:12:04.906Z,3.01
2023-04-14T06:13:04.908Z,2.97
2023-04-14T06:14:04.891Z,2.84
2023-04-14T06:15:04.930Z,2.83
2023-04-14T06:16:04.920Z,2.83
2023-04-14T06:17:04.858Z,2.87
2023-04-14T06:18:04.937Z,2.98
2023-04-14T06:19:04.859Z,3.07
2023-04-14T06:20:04.848Z,3.08
2023-04-14T06:21:04.892Z,3.12
2023-04-14T06:22:04.846Z,3.20
2023-04-14T06:23:04.821Z,3.42
2023-04-14T06:24:04.844Z,3.42
2023-04-14T06:25:04.824Z,3.49
2023-04-14T06:26:04.832Z,3.44
2023-04-14T06:27:04.836Z,3.39
2023-04-14T06:28:04.796Z,3.59
2023-04-14T06:29:04.787Z,3.60
2023-04-14T06:30:04.781Z,3.49
2023-04-14T06:31:04.772Z,3.42
2023-04-14T06:32:04.796Z,3.59
2023-04-14T06:33:04.898Z,3.57
2023-04-14T06:34:04.835Z,3.62
2023-04-14T06:35:04.806Z,3.75
2023-04-14T06:36:04.735Z,3.74
2023-04-14T06:37:36.253Z,3.80
2023-04-14T06:38:04.726Z,3.80
2023-04-14T06:39:04.791Z,3.82
2023-04-14T06:40:04.722Z,3.68
2023-04-14T06:41:04.710Z,3.78
2023-04-14T06:42:04.694Z,3.88
2023-04-14T06:43:04.708Z,3.96
2023-04-14T06:44:04.699Z,3.99
2023-04-14T06:45:04.702Z,4.08
2023-04-14T06:46:04.702Z,4.16
2023-04-14T06:47:04.683Z,3.98
2023-04-14T06:48:04.705Z,4.00
2023-04-14T06:49:04.651Z,4.17
2023-04-14T06:50:04.670Z,4.25
2023-04-14T06:51:04.710Z,4.20
2023-04-14T06:52:04.625Z,4.34
2023-04-14T06:53:04.615Z,4.42
2023-04-14T06:54:04.663Z,4.57
2023-04-14T06:55:04.626Z,4.51
2023-04-14T06:56:04.608Z,4.62
2023-04-14T06:57:04.667Z,4.65
2023-04-14T06:58:04.600Z,4.57
2023-04-14T06:59:04.573Z,4.75
2023-04-14T07:00:04.591Z,4.72
2023-04-14T07:01:04.603Z,4.64
2023-04-14T07:02:04.664Z,4.57
2023-04-14T07:03:04.681Z,4.46
2023-04-14T07:04:07.376Z,4.54
2023-04-14T07:05:04.648Z,4.56
2023-04-14T07:06:04.538Z,4.56
2023-04-14T07:07:04.517Z,4.68
2023-04-14T07:08:04.896Z,4.80
2023-04-14T07:09:05.828Z,4.80
2023-04-14T07:10:04.554Z,4.83
2023-04-14T07:11:04.513Z,4.91
2023-04-14T07:12:04.501Z,4.87
2023-04-14T07:13:04.464Z,4.97
2023-04-14T07:14:04.472Z,5.05
2023-04-14T07:15:04.721Z,5.06
2023-04-14T07:16:04.494Z,5.01
2023-04-14T07:17:04.436Z,5.17
2023-04-14T07:18:04.506Z,5.23
2023-04-14T07:19:04.457Z,5.35
2023-04-14T07:20:04.440Z,5.38
2023-04-14T07:21:04.449Z,5.49
2023-04-14T07:22:04.408Z,5.70
2023-04-14T07:23:04.401Z,5.69
2023-04-14T07:24:04.515Z,5.69
2023-04-14T07:25:04.368Z,5.75
2023-04-14T07:27:31.543Z,5.84
2023-04-14T07:28:31.558Z,5.87
2023-04-14T07:29:39.259Z,6.01
2023-04-14T07:30:32.469Z,6.10
2023-04-14T07:31:32.467Z,6.10
2023-04-14T07:32:32.511Z,6.21
2023-04-14T07:33:33.391Z,6.38
2023-04-14T07:34:32.369Z,6.32
2023-04-14T07:35:32.417Z,6.51
2023-04-14T07:36:32.389Z,6.46
2023-04-14T07:37:32.378Z,6.61
2023-04-14T07:38:32.292Z,6.76
2023-04-14T07:39:32.834Z,6.93
2023-04-14T07:40:32.211Z,6.73
2023-04-14T07:41:32.380Z,6.69
2023-04-14T07:42:32.322Z,6.61
2023-04-14T07:43:32.372Z,6.53
2023-04-14T07:44:32.141Z,6.45
2023-04-14T07:45:33.839Z,6.64
2023-04-14T07:46:32.325Z,6.75
2023-04-14T07:47:32.286Z,6.65
2023-04-14T07:48:32.295Z,6.79
2023-04-14T07:49:32.281Z,6.89
2023-04-14T07:50:32.301Z,7.01
2023-04-14T07:51:33.782Z,7.16
2023-04-14T07:52:32.316Z,7.15
2023-04-14T07:53:32.319Z,7.12
2023-04-14T07:54:32.072Z,7.18
2023-04-14T07:55:32.155Z,7.33
2023-04-14T07:56:32.249Z,7.47
2023-04-14T07:57:34.806Z,7.44
2023-04-14T07:58:32.238Z,7.74
2023-04-14T07:59:32.209Z,7.66
2023-04-14T08:00:32.250Z,7.48
2023-04-14T08:01:32.260Z,7.47
2023-04-14T08:02:32.352Z,7.44
2023-04-14T08:03:32.863Z,7.48
2023-04-14T08:04:32.261Z,7.77
2023-04-14T08:05:32.226Z,7.71
2023-04-14T08:06:32.124Z,7.81
2023-04-14T08:07:33.232Z,8.13
2023-04-14T08:08:32.157Z,8.42
2023-04-14T08:09:32.361Z,8.60
2023-04-14T08:10:32.116Z,8.47
2023-04-14T08:11:32.180Z,8.46
2023-04-14T08:12:31.953Z,8.47
2023-04-14T08:13:32.014Z,8.52
2023-04-14T08:14:31.958Z,8.37
2023-04-14T08:15:33.041Z,8.22
2023-04-14T08:16:32.076Z,8.27
2023-04-14T08:17:32.079Z,8.36
2023-04-14T08:18:31.993Z,8.46
2023-04-14T08:19:31.969Z,8.60
2023-04-14T08:20:32.091Z,8.57
2023-04-14T08:21:32.380Z,8.63
2023-04-14T08:22:31.970Z,8.58
2023-04-14T08:23:32.025Z,8.76
2023-04-14T08:24:32.063Z,8.86
2023-04-14T08:25:32.057Z,8.91
2023-04-14T08:26:31.848Z,9.00
2023-04-14T08:27:32.392Z,9.19
2023-04-14T08:28:32.007Z,9.40
2023-04-14T08:29:32.026Z,9.35
2023-04-14T08:30:32.992Z,9.59
2023-04-14T08:31:32.056Z,9.75
2023-04-14T08:32:31.900Z,9.88
2023-04-14T08:33:32.457Z,10.13
2023-04-14T08:34:32.025Z,10.46
2023-04-14T08:35:35.720Z,10.90
2023-04-14T08:36:33.007Z,11.09
2023-04-14T08:37:32.009Z,11.12
2023-04-14T08:38:31.991Z,11.46
2023-04-14T08:39:32.498Z,11.54
2023-04-14T08:40:31.956Z,11.56
2023-04-14T08:41:31.867Z,11.38
2023-04-14T08:42:31.914Z,11.08
2023-04-14T08:43:31.968Z,11.02
2023-04-14T08:44:32.412Z,11.11
2023-04-14T08:45:32.353Z,10.72
2023-04-14T08:46:31.941Z,10.52
2023-04-14T08:47:31.961Z,10.66
2023-04-14T08:48:31.941Z,10.70
2023-04-14T08:49:31.793Z,11.08
2023-04-14T08:50:31.877Z,11.06
2023-04-14T08:51:32.352Z,11.20
2023-04-14T08:52:31.874Z,11.46
2023-04-14T08:53:32.907Z,11.51
2023-04-14T08:54:31.841Z,11.72
2023-04-14T08:55:31.865Z,11.63
2023-04-14T08:56:31.837Z,11.35
2023-04-14T08:57:32.329Z,11.62
2023-04-14T08:58:31.791Z,11.44
2023-04-14T08:59:31.791Z,11.06
2023-04-14T09:00:31.741Z,11.36
2023-04-14T09:01:33.666Z,11.72
2023-04-14T09:02:31.922Z,11.66
2023-04-14T09:03:32.564Z,11.74
2023-04-14T09:04:31.803Z,11.88
2023-04-14T09:05:31.757Z,11.90
2023-04-14T09:06:31.776Z,12.03
2023-04-14T09:07:31.818Z,11.90
2023-04-14T09:08:31.779Z,11.84
2023-04-14T09:09:32.292Z,12.04
2023-04-14T09:10:31.773Z,12.33
2023-04-14T09:11:31.755Z,12.36
2023-04-14T09:12:31.755Z,12.51
2023-04-14T09:13:31.665Z,12.55
2023-04-14T09:14:31.734Z,12.91
2023-04-14T09:15:33.328Z,13.04
2023-04-14T09:16:31.748Z,12.96
2023-04-14T09:17:32.744Z,13.12
2023-04-14T09:18:31.722Z,12.88
2023-04-14T09:19:31.692Z,12.76
2023-04-14T09:20:37.806Z,12.89
2023-04-14T09:21:53.546Z,12.85
2023-04-14T09:22:32.641Z,12.85
2023-04-14T09:23:31.669Z,12.71
2023-04-14T09:24:32.786Z,13.07
2023-04-14T09:25:31.630Z,13.43
2023-04-14T09:26:32.650Z,13.53
2023-04-14T09:27:34.179Z,13.27
2023-04-14T09:28:31.525Z,13.35
2023-04-14T09:29:31.584Z,13.32
2023-04-14T09:30:31.629Z,13.62
2023-04-14T09:31:31.660Z,13.93
2023-04-14T09:32:32.137Z,14.21
2023-04-14T09:33:32.074Z,14.39
2023-04-14T09:34:31.625Z,14.69
2023-04-14T09:35:31.595Z,15.00
2023-04-14T09:36:31.571Z,14.45
2023-04-14T09:37:31.562Z,14.54
2023-04-14T09:38:31.530Z,14.87
2023-04-14T09:39:34.045Z,14.80
2023-04-14T09:40:31.454Z,14.31
2023-04-14T09:41:31.539Z,14.53
2023-04-14T09:42:31.533Z,14.75
2023-04-14T09:43:31.537Z,14.90
2023-04-14T09:44:31.520Z,15.12
2023-04-14T09:45:31.996Z,14.87
2023-04-14T09:46:32.458Z,15.31
2023-04-14T09:47:31.513Z,15.71
2023-04-14T09:48:31.542Z,16.03
2023-04-14T09:49:31.490Z,16.25
2023-04-14T09:50:31.442Z,16.50
2023-04-14T09:51:31.961Z,16.57
2023-04-14T09:52:32.437Z,16.41
2023-04-14T09:53:31.495Z,15.55
2023-04-14T09:54:31.501Z,15.33
2023-04-14T09:55:31.449Z,14.93
2023-04-14T09:56:31.399Z,15.31
2023-04-14T09:57:32.546Z,15.86
2023-04-14T09:58:31.421Z,16.13
2023-04-14T09:59:31.352Z,16.42
2023-04-14T10:00:31.371Z,16.60
2023-04-14T10:01:32.046Z,17.09
2023-04-14T10:02:31.444Z,17.17
2023-04-14T10:03:32.875Z,17.62
2023-04-14T10:04:31.399Z,16.44
2023-04-14T10:05:33.965Z,16.18
2023-04-14T10:06:31.557Z,16.51
2023-04-14T10:07:32.377Z,16.63
2023-04-14T10:08:31.366Z,16.44
2023-04-14T10:09:32.828Z,16.65
2023-04-14T10:10:31.349Z,16.29
2023-04-14T10:11:31.341Z,16.30
2023-04-14T10:12:31.301Z,16.29
2023-04-14T10:13:31.362Z,16.80
2023-04-14T10:14:31.355Z,16.66
2023-04-14T10:15:33.961Z,16.78
2023-04-14T10:16:31.321Z,16.11
2023-04-14T10:17:34.035Z,15.20
2023-04-14T10:18:31.235Z,15.07
2023-04-14T10:19:31.323Z,15.85
2023-04-14T10:20:31.088Z,16.33
2023-04-14T10:21:31.814Z,17.06
2023-04-14T10:22:31.210Z,17.43
2023-04-14T10:23:31.213Z,17.49
2023-04-14T10:24:31.209Z,16.55
2023-04-14T10:25:31.246Z,16.18
2023-04-14T10:26:31.206Z,16.44
2023-04-14T10:27:33.096Z,16.80
2023-04-14T10:28:32.497Z,17.39
2023-04-14T10:29:32.200Z,18.16
2023-04-14T10:30:31.150Z,16.33
2023-04-14T10:31:31.237Z,16.14
2023-04-14T10:32:31.253Z,16.25
2023-04-14T10:33:32.730Z,17.10
2023-04-14T10:34:31.143Z,17.95
2023-04-14T10:35:31.173Z,18.17
2023-04-14T10:36:31.169Z,18.07
2023-04-14T10:37:31.134Z,17.80
2023-04-14T10:38:31.099Z,17.68
2023-04-14T10:39:31.557Z,17.45
2023-04-14T10:40:31.106Z,17.05
2023-04-14T10:41:31.100Z,17.21
2023-04-14T10:42:31.104Z,17.91
2023-04-14T10:43:32.000Z,18.02
2023-04-14T10:44:32.097Z,17.49
2023-04-14T10:45:31.609Z,17.99
2023-04-14T10:46:31.090Z,17.98
2023-04-14T10:47:31.966Z,18.19
2023-04-14T10:48:32.084Z,18.32
2023-04-14T10:49:31.120Z,18.49
2023-04-14T10:50:31.044Z,18.65
2023-04-14T10:51:31.582Z,17.81
2023-04-14T10:52:31.048Z,18.26
2023-04-14T10:53:31.013Z,18.07
2023-04-14T10:54:31.012Z,18.59
2023-04-14T10:55:32.031Z,18.79
2023-04-14T10:56:31.082Z,19.09
2023-04-14T10:57:31.550Z,19.49
2023-04-14T10:58:31.130Z,19.94
2023-04-14T10:59:30.943Z,20.25
2023-04-14T11:00:30.956Z,20.66
2023-04-14T11:01:31.235Z,20.33
2023-04-14T11:02:32.130Z,18.64
2023-04-14T11:03:33.554Z,17.91
2023-04-14T11:04:31.983Z,16.87
2023-04-14T11:05:30.917Z,16.44
2023-04-14T11:06:30.880Z,16.72
2023-04-14T11:07:30.904Z,17.54
2023-04-14T11:08:30.799Z,18.44
2023-04-14T11:09:31.385Z,18.56
2023-04-14T11:10:30.904Z,19.24
2023-04-14T11:11:30.868Z,19.83
2023-04-14T11:12:30.882Z,20.33
2023-04-14T11:13:30.864Z,20.73
2023-04-14T11:14:30.792Z,20.58
2023-04-14T11:15:31.346Z,20.78
2023-04-14T11:16:30.876Z,21.00
2023-04-14T11:17:30.837Z,20.91
2023-04-14T11:18:31.833Z,20.01
2023-04-14T11:19:30.828Z,19.68
2023-04-14T11:20:30.777Z,19.40
2023-04-14T11:21:31.224Z,18.41
2023-04-14T11:22:30.785Z,17.76
2023-04-14T11:23:30.792Z,17.35
2023-04-14T11:24:31.328Z,17.22
2023-04-14T11:25:30.774Z,17.15
2023-04-14T11:26:30.758Z,16.44
2023-04-14T11:27:31.300Z,15.48
2023-04-14T11:28:31.942Z,15.22
2023-04-14T11:29:30.686Z,15.81
2023-04-14T11:30:31.729Z,16.92
2023-04-14T11:31:30.738Z,17.57
2023-04-14T11:32:30.720Z,17.35
2023-04-14T11:33:31.484Z,17.55
2023-04-14T11:34:31.151Z,18.19
2023-04-14T11:35:30.692Z,18.89
2023-04-14T11:36:31.737Z,18.71
2023-04-14T11:37:31.207Z,18.89
2023-04-14T11:38:31.670Z,19.46
2023-04-14T11:39:33.176Z,19.61
2023-04-14T11:40:31.663Z,20.23
2023-04-14T11:41:30.612Z,20.75
2023-04-14T11:42:30.631Z,20.10
2023-04-14T11:43:30.642Z,19.12
2023-04-14T11:44:31.430Z,18.04
2023-04-14T11:45:32.198Z,17.14
2023-04-14T11:46:30.670Z,16.96
2023-04-14T11:47:30.614Z,16.72
2023-04-14T11:48:30.588Z,16.34
2023-04-14T11:49:30.625Z,16.25
2023-04-14T11:50:30.598Z,15.56
2023-04-14T11:51:31.116Z,16.42
2023-04-14T11:52:30.400Z,16.96
2023-04-14T11:53:30.601Z,17.24
2023-04-14T11:54:30.586Z,16.47
2023-04-14T11:55:30.527Z,16.55
2023-04-14T11:56:30.564Z,17.21
2023-04-14T11:57:34.040Z,16.60
2023-04-14T11:58:30.577Z,16.36
2023-04-14T11:59:30.509Z,16.77
2023-04-14T12:00:30.508Z,16.90
2023-04-14T12:01:31.510Z,17.03
2023-04-14T12:02:30.646Z,17.62
2023-04-14T12:03:31.319Z,18.19
2023-04-14T12:04:30.640Z,18.34
2023-04-14T12:05:30.580Z,18.62
2023-04-14T12:06:31.470Z,18.68
2023-04-14T12:07:30.476Z,19.05
2023-04-14T12:08:30.450Z,19.07
2023-04-14T12:09:30.888Z,20.12
2023-04-14T12:10:30.368Z,20.30
2023-04-14T12:11:30.464Z,19.67
2023-04-14T12:12:30.407Z,19.43
2023-04-14T12:13:30.433Z,19.87
2023-04-14T12:14:30.420Z,19.79
2023-04-14T12:15:32.888Z,20.13
2023-04-14T12:16:30.463Z,19.21
2023-04-14T12:17:30.918Z,18.13
2023-04-14T12:18:30.403Z,18.47
2023-04-14T12:19:30.395Z,18.93
2023-04-14T12:20:31.405Z,19.39
2023-04-14T12:21:30.922Z,20.08
2023-04-14T12:22:30.364Z,20.85
2023-04-14T12:23:30.319Z,21.27
2023-04-14T12:24:30.371Z,20.98
2023-04-14T12:25:30.322Z,19.82
2023-04-14T12:26:30.344Z,19.30
2023-04-14T12:27:30.826Z,18.79
2023-04-14T12:28:30.976Z,19.06
2023-04-14T12:29:30.273Z,19.58
2023-04-14T12:30:31.306Z,18.90
2023-04-14T12:31:30.328Z,19.68
2023-04-14T12:32:31.238Z,20.16
2023-04-14T12:33:32.046Z,19.94
2023-04-14T12:34:30.241Z,19.01
2023-04-14T12:35:30.250Z,18.28
2023-04-14T12:36:45.270Z,18.54
2023-04-14T12:37:31.199Z,18.71
2023-04-14T12:38:30.313Z,18.42
2023-04-14T12:39:30.734Z,18.07
2023-04-14T12:40:30.140Z,16.70
2023-04-14T12:41:30.212Z,16.26
2023-04-14T12:42:30.962Z,16.36
2023-04-14T12:43:30.266Z,15.88
2023-04-14T12:44:30.265Z,15.43
2023-04-14T12:45:31.710Z,15.80
2023-04-14T12:46:30.082Z,17.05
2023-04-14T12:47:30.263Z,17.54
2023-04-14T12:48:30.148Z,17.76
2023-04-14T12:49:30.116Z,17.49
2023-04-14T12:50:30.161Z,17.39
2023-04-14T12:51:30.665Z,17.20
2023-04-14T12:52:30.020Z,16.65
2023-04-14T12:53:30.014Z,16.16
2023-04-14T12:54:30.131Z,15.93
2023-04-14T12:55:30.121Z,15.56
2023-04-14T12:56:30.090Z,15.35
2023-04-14T12:57:30.565Z,15.48
2023-04-14T12:58:30.075Z,15.30
2023-04-14T12:59:30.592Z,15.40
2023-04-14T13:00:30.092Z,15.34
2023-04-14T13:01:30.135Z,14.94
2023-04-14T13:02:30.291Z,14.45
2023-04-14T13:03:30.688Z,14.38
2023-04-14T13:04:30.032Z,14.60
2023-04-14T13:05:30.034Z,14.83
2023-04-14T13:06:30.046Z,14.90
2023-04-14T13:07:30.010Z,15.07
2023-04-14T13:08:30.046Z,15.93
2023-04-14T13:09:30.531Z,17.27
2023-04-14T13:10:31.609Z,18.34